createdAt,value
2017-07-08T00:01:04.068Z,6.80
2017-07-08T00:03:33.781Z,7.20
2017-07-08T00:06:04.135Z,7.20
2017-07-08T00:08:34.470Z,7.10
2017-07-08T00:11:04.338Z,7.73
2017-07-08T00:13:34.093Z,7.67
2017-07-08T00:16:03.967Z,7.90
2017-07-08T00:18:33.720Z,7.77
2017-07-08T00:21:02.878Z,8.37
2017-07-08T00:23:33.337Z,8.20
2017-07-08T00:26:03.326Z,8.13
2017-07-08T00:28:33.785Z,7.73
2017-07-08T00:31:03.722Z,8.57
2017-07-08T00:33:33.430Z,8.33
2017-07-08T00:36:03.221Z,8.43
2017-07-08T00:38:33.532Z,9.10
2017-07-08T00:41:03.286Z,8.50
2017-07-08T00:43:32.979Z,8.90
2017-07-08T00:46:02.656Z,9.30
2017-07-08T00:48:32.378Z,8.70
2017-07-08T00:51:02.109Z,9.90
2017-07-08T00:53:31.859Z,9.33
2017-07-08T00:56:01.537Z,9.53
2017-07-08T00:58:31.268Z,8.50
2017-07-08T01:01:00.589Z,9.50
2017-07-08T01:03:30.413Z,9.23
2017-07-08T01:06:00.209Z,9.80
2017-07-08T01:08:30.034Z,9.63
2017-07-08T01:11:00.082Z,9.37
2017-07-08T01:13:29.851Z,8.57
2017-07-08T01:16:00.157Z,9.27
2017-07-08T01:18:30.453Z,9.17
2017-07-08T01:21:00.226Z,8.77
2017-07-08T01:23:29.904Z,9.90
2017-07-08T01:25:58.922Z,10.80
2017-07-08T01:28:28.627Z,9.53
2017-07-08T01:30:58.395Z,9.80
2017-07-08T01:33:28.082Z,9.27
2017-07-08T01:35:57.766Z,10.07
2017-07-08T01:38:27.543Z,10.60
2017-07-08T01:41:02.541Z,10.10
2017-07-08T01:43:35.148Z,9.40
2017-07-08T01:46:04.886Z,10.20
2017-07-08T01:48:35.200Z,10.63
2017-07-08T01:51:05.027Z,9.77
2017-07-08T01:53:35.123Z,11.47
2017-07-08T01:56:04.115Z,11.60
2017-07-08T01:58:35.267Z,11.50
2017-07-08T02:01:04.955Z,13.27
2017-07-08T02:03:34.755Z,12.30
2017-07-08T02:06:04.500Z,12.57
2017-07-08T02:08:34.244Z,13.27
2017-07-08T02:11:04.081Z,13.53
2017-07-08T02:13:33.849Z,13.27
2017-07-08T02:16:03.742Z,15.27
2017-07-08T02:18:33.417Z,13.20
2017-07-08T02:21:03.201Z,15.10
2017-07-08T02:23:32.854Z,14.47
2017-07-08T02:26:02.707Z,15.10
2017-07-08T02:28:32.558Z,15.10
2017-07-08T02:31:02.441Z,15.40
2017-07-08T02:33:32.142Z,15.27
2017-07-08T02:36:01.836Z,14.90
2017-07-08T02:38:31.615Z,16.83
2017-07-08T02:41:01.284Z,15.73
2017-07-08T02:43:32.443Z,16.73
2017-07-08T02:46:02.114Z,15.57
2017-07-08T02:48:31.811Z,17.70
2017-07-08T02:51:01.466Z,16.93
2017-07-08T02:53:31.214Z,17.40
2017-07-08T02:56:00.890Z,15.90
2017-07-08T02:58:31.332Z,17.40
2017-07-08T03:01:01.078Z,15.07
2017-07-08T03:03:31.391Z,15.80
2017-07-08T03:06:01.197Z,14.67
2017-07-08T03:08:30.923Z,14.50
2017-07-08T03:11:00.638Z,14.20
2017-07-08T03:13:30.314Z,15.17
2017-07-08T03:16:00.044Z,16.00
2017-07-08T03:18:29.953Z,15.87
2017-07-08T03:20:59.620Z,16.53
2017-07-08T03:23:29.985Z,15.83
2017-07-08T03:25:59.700Z,17.50
2017-07-08T03:28:29.463Z,17.60
2017-07-08T03:30:59.156Z,17.30
2017-07-08T03:33:28.876Z,15.73
2017-07-08T03:35:59.155Z,16.20
2017-07-08T03:38:28.909Z,16.03
2017-07-08T03:40:58.651Z,14.77
2017-07-08T03:43:29.107Z,15.60
2017-07-08T03:45:58.895Z,16.37
2017-07-08T03:48:29.209Z,15.40
2017-07-08T03:50:58.918Z,15.10
2017-07-08T03:53:28.614Z,15.43
2017-07-08T03:55:58.311Z,15.60
2017-07-08T03:58:28.022Z,16.27
2017-07-08T04:00:57.738Z,14.73
2017-07-08T04:03:27.430Z,16.50
2017-07-08T04:05:57.094Z,17.67
2017-07-08T04:08:26.823Z,20.60
2017-07-08T04:10:56.495Z,19.57
2017-07-08T04:13:26.255Z,20.23
2017-07-08T04:15:56.683Z,20.97
2017-07-08T04:18:27.252Z,22.27
2017-07-08T04:20:57.436Z,22.50
2017-07-08T04:23:27.426Z,21.30
2017-07-08T04:25:57.106Z,21.50
2017-07-08T04:28:26.808Z,23.40
2017-07-08T04:30:56.584Z,22.80
2017-07-08T04:33:26.274Z,22.57
2017-07-08T04:35:56.032Z,23.80
2017-07-08T04:38:25.816Z,24.07
2017-07-08T04:40:58.794Z,23.13
2017-07-08T04:43:29.406Z,22.90
2017-07-08T04:45:59.306Z,23.80
2017-07-08T04:48:30.807Z,23.10
2017-07-08T04:51:02.393Z,22.90
2017-07-08T04:53:33.231Z,24.43
2017-07-08T04:56:04.629Z,24.47
2017-07-08T04:58:35.931Z,24.40
2017-07-08T05:01:06.925Z,23.40
2017-07-08T05:03:36.614Z,24.10
2017-07-08T05:06:06.394Z,24.60
2017-07-08T05:08:37.321Z,24.70
2017-07-08T05:11:08.673Z,27.00
2017-07-08T05:13:40.317Z,26.47
2017-07-08T05:16:11.694Z,25.77
2017-07-08T05:18:41.925Z,25.57
2017-07-08T05:21:11.597Z,25.47
2017-07-08T05:23:41.276Z,25.87
2017-07-08T05:26:11.055Z,25.07
2017-07-08T05:28:41.152Z,26.53
2017-07-08T05:31:10.987Z,26.63
2017-07-08T05:33:39.975Z,28.07
2017-07-08T05:36:09.698Z,27.13
2017-07-08T05:38:39.441Z,27.07
2017-07-08T05:41:09.874Z,28.10
2017-07-08T05:43:39.615Z,27.27
2017-07-08T05:46:09.530Z,26.57
2017-07-08T05:48:39.538Z,25.83
2017-07-08T05:51:09.226Z,26.03
2017-07-08T05:53:39.050Z,28.63
2017-07-08T05:56:09.431Z,27.70
2017-07-08T05:58:39.214Z,26.73
2017-07-08T06:01:09.567Z,25.10
2017-07-08T06:03:39.923Z,26.70
2017-07-08T06:06:09.668Z,24.13
2017-07-08T06:08:38.619Z,23.57
2017-07-08T06:11:08.352Z,22.60
2017-07-08T06:13:38.035Z,21.87
2017-07-08T06:16:07.778Z,21.80
2017-07-08T06:18:37.507Z,20.97
2017-07-08T06:21:07.291Z,19.30
2017-07-08T06:23:37.087Z,16.37
2017-07-08T06:26:06.468Z,16.67
2017-07-08T06:28:36.139Z,16.20
2017-07-08T06:31:05.966Z,14.90
2017-07-08T06:33:35.659Z,12.80
2017-07-08T06:36:05.425Z,13.70
2017-07-08T06:38:35.102Z,12.57
2017-07-08T06:41:04.867Z,13.80
2017-07-08T06:43:34.639Z,14.53
2017-07-08T06:46:04.531Z,13.20
2017-07-08T06:48:34.295Z,13.90
2017-07-08T06:51:04.661Z,11.47
2017-07-08T06:53:35.135Z,12.00
2017-07-08T06:56:04.540Z,13.60
2017-07-08T06:58:34.234Z,11.03
2017-07-08T07:01:04.030Z,12.27
2017-07-08T07:03:33.781Z,13.27
2017-07-08T07:06:03.610Z,14.20
2017-07-08T07:08:33.294Z,12.70
2017-07-08T07:11:03.058Z,12.93
2017-07-08T07:13:32.739Z,13.27
2017-07-08T07:16:10.740Z,12.17
2017-07-08T07:18:43.239Z,11.33
2017-07-08T07:21:13.067Z,14.10
2017-07-08T07:23:42.809Z,10.07
2017-07-08T07:26:12.711Z,12.00
2017-07-08T07:28:42.975Z,12.23
2017-07-08T07:31:13.252Z,11.90
2017-07-08T07:33:42.989Z,13.00
2017-07-08T07:36:12.742Z,11.93
2017-07-08T07:38:41.750Z,13.63
2017-07-08T07:41:11.525Z,13.30
2017-07-08T07:43:41.281Z,11.97
2017-07-08T07:46:11.404Z,11.30
2017-07-08T07:48:41.101Z,11.87
2017-07-08T07:51:10.818Z,10.33
2017-07-08T07:53:40.495Z,11.47
2017-07-08T07:56:10.267Z,9.97
2017-07-08T07:58:40.064Z,9.90
2017-07-08T08:03:39.355Z,11.40
2017-07-08T08:06:09.620Z,11.30
2017-07-08T08:08:39.362Z,10.67
2017-07-08T08:11:09.039Z,11.00
2017-07-08T08:13:38.727Z,12.13
2017-07-08T08:16:08.466Z,14.20
2017-07-08T08:18:37.794Z,13.70
2017-07-08T08:21:07.519Z,12.00
2017-07-08T08:23:37.917Z,12.00
2017-07-08T08:26:07.731Z,14.10
2017-07-08T08:28:37.542Z,15.50
2017-07-08T08:31:07.352Z,12.70
2017-07-08T08:33:37.127Z,13.57
2017-07-08T08:36:06.877Z,13.13
2017-07-08T08:38:36.391Z,16.00
2017-07-08T08:41:06.093Z,13.73
2017-07-08T08:43:35.769Z,14.70
2017-07-08T08:46:05.584Z,13.20
2017-07-08T08:48:35.247Z,12.57
2017-07-08T08:51:05.062Z,12.57
2017-07-08T08:53:34.401Z,12.20
2017-07-08T08:56:03.943Z,11.20
2017-07-08T08:58:33.871Z,13.87
2017-07-08T09:01:03.585Z,12.40
2017-07-08T09:03:34.763Z,11.90
2017-07-08T09:06:04.345Z,10.97
2017-07-08T09:08:33.909Z,11.70
2017-07-08T09:11:03.698Z,11.83
2017-07-08T09:13:33.369Z,12.30
2017-07-08T09:16:03.072Z,13.13
2017-07-08T09:18:32.984Z,12.50
2017-07-08T09:21:02.939Z,11.67
2017-07-08T09:23:32.642Z,10.73
2017-07-08T09:26:02.951Z,12.93
2017-07-08T09:28:32.681Z,11.63
2017-07-08T09:31:03.026Z,10.53
2017-07-08T09:33:32.723Z,11.80
2017-07-08T09:36:02.495Z,11.83
2017-07-08T09:38:31.549Z,10.10
2017-07-08T09:41:01.274Z,10.57
2017-07-08T09:43:30.967Z,10.73
2017-07-08T09:46:00.706Z,10.17
2017-07-08T09:48:30.432Z,11.10
2017-07-08T09:51:00.114Z,10.50
2017-07-08T09:53:29.875Z,10.23
2017-07-08T09:55:59.688Z,11.23
2017-07-08T09:58:29.386Z,9.93
2017-07-08T10:00:59.094Z,11.43
2017-07-08T10:03:33.205Z,10.30
2017-07-08T10:06:08.412Z,11.10
2017-07-08T10:08:38.143Z,10.07
2017-07-08T10:11:07.863Z,10.90
2017-07-08T10:13:37.544Z,11.50
2017-07-08T10:16:07.275Z,12.53
2017-07-08T10:18:36.821Z,13.17
2017-07-08T10:21:06.622Z,13.50
2017-07-08T10:23:36.947Z,13.60
2017-07-08T10:26:06.711Z,12.30
2017-07-08T10:28:37.376Z,13.57
2017-07-08T10:31:07.842Z,13.73
2017-07-08T10:33:37.583Z,14.50
2017-07-08T10:36:07.977Z,14.70
2017-07-08T10:38:37.667Z,14.27
2017-07-08T10:41:08.096Z,13.47
2017-07-08T10:43:38.272Z,14.67
2017-07-08T10:46:08.583Z,13.20
2017-07-08T10:48:38.307Z,13.00
2017-07-08T10:51:08.756Z,14.03
2017-07-08T10:53:38.462Z,13.07
2017-07-08T10:56:08.295Z,13.00
2017-07-08T10:58:38.074Z,12.50
2017-07-08T11:01:07.811Z,13.37
2017-07-08T11:03:37.608Z,12.13
2017-07-08T11:06:08.367Z,11.40
2017-07-08T11:08:38.050Z,13.30
2017-07-08T11:11:07.739Z,11.17
2017-07-08T11:13:37.442Z,12.73
2017-07-08T11:16:07.879Z,12.73
2017-07-08T11:18:38.331Z,12.73
2017-07-08T11:21:08.055Z,13.87
2017-07-08T11:23:37.789Z,13.60
2017-07-08T11:26:07.574Z,12.03
2017-07-08T11:28:37.435Z,11.00
2017-07-08T11:31:07.143Z,10.30
2017-07-08T11:33:36.930Z,10.20
2017-07-08T11:36:06.669Z,9.40
2017-07-08T11:38:36.435Z,10.53
2017-07-08T11:41:06.801Z,11.50
2017-07-08T11:43:38.330Z,10.87
2017-07-08T11:46:08.180Z,10.90
2017-07-08T11:48:38.932Z,9.67
2017-07-08T11:51:08.647Z,11.70
2017-07-08T11:53:38.405Z,11.63
2017-07-08T11:56:08.170Z,10.63
2017-07-08T11:58:37.876Z,11.63
2017-07-08T12:01:07.576Z,11.10
2017-07-08T12:03:37.375Z,11.40
2017-07-08T12:06:07.086Z,11.33
2017-07-08T12:08:36.814Z,11.03
2017-07-08T12:11:07.876Z,10.40
2017-07-08T12:13:38.368Z,10.70
2017-07-08T12:16:09.365Z,10.80
2017-07-08T12:18:39.572Z,9.80
2017-07-08T12:21:09.413Z,10.17
2017-07-08T12:23:39.164Z,10.10
2017-07-08T12:26:08.897Z,11.07
2017-07-08T12:28:38.574Z,9.43
2017-07-08T12:31:11.982Z,9.87
2017-07-08T12:33:44.467Z,11.50
2017-07-08T12:36:15.428Z,10.93
2017-07-08T12:38:46.561Z,10.10
2017-07-08T12:41:17.955Z,10.57
2017-07-08T12:43:49.327Z,10.60
2017-07-08T12:46:20.383Z,9.60
2017-07-08T12:48:51.366Z,9.70
2017-07-08T12:51:22.267Z,7.57
2017-07-08T12:53:52.422Z,7.80
2017-07-08T12:56:22.980Z,7.87
2017-07-08T12:58:54.335Z,8.40
2017-07-08T13:01:25.457Z,8.07
2017-07-08T13:03:56.280Z,7.20
2017-07-08T13:06:26.918Z,7.73
2017-07-08T13:08:57.910Z,7.90
2017-07-08T13:11:28.253Z,7.87
2017-07-08T13:13:59.535Z,8.10
2017-07-08T13:16:29.739Z,7.90
2017-07-08T13:19:00.765Z,8.23
2017-07-08T13:21:31.813Z,7.70
2017-07-08T13:24:02.852Z,7.93
2017-07-08T13:26:34.051Z,6.33
2017-07-08T13:29:05.872Z,6.50
2017-07-08T13:31:39.188Z,6.20
2017-07-08T13:34:10.929Z,8.30
2017-07-08T13:36:42.109Z,7.10
2017-07-08T13:39:12.247Z,6.57
2017-07-08T13:41:42.578Z,5.67
2017-07-08T13:44:13.805Z,6.33
2017-07-08T13:46:44.654Z,6.00
2017-07-08T13:49:16.047Z,6.47
2017-07-08T13:51:47.240Z,5.97
2017-07-08T13:54:18.194Z,5.93
2017-07-08T13:56:49.385Z,6.40
2017-07-08T13:59:20.160Z,6.20
2017-07-08T14:01:50.910Z,6.47
2017-07-08T14:04:21.669Z,6.20
2017-07-08T14:06:52.442Z,6.27
2017-07-08T14:09:23.318Z,5.80
2017-07-08T14:11:53.485Z,6.80
2017-07-08T14:14:23.938Z,6.00
2017-07-08T14:16:54.640Z,6.17
2017-07-08T14:19:25.963Z,6.23
2017-07-08T14:21:57.027Z,5.90
2017-07-08T14:24:29.180Z,6.23
2017-07-08T14:26:59.436Z,5.57
2017-07-08T14:29:29.830Z,5.50
2017-07-08T14:32:00.755Z,5.37
2017-07-08T14:34:33.972Z,5.03
2017-07-08T14:37:07.781Z,5.33
2017-07-08T14:39:40.957Z,5.50
2017-07-08T14:42:13.632Z,5.27
2017-07-08T14:44:45.445Z,5.23
2017-07-08T14:47:17.702Z,5.17
2017-07-08T14:49:50.162Z,5.73
2017-07-08T14:52:23.003Z,5.40
2017-07-08T14:54:55.237Z,5.20
2017-07-08T14:57:27.337Z,4.90
2017-07-08T15:00:02.467Z,5.60
2017-07-08T15:02:40.620Z,4.90
2017-07-08T15:05:19.361Z,4.63
2017-07-08T15:07:59.565Z,4.63
2017-07-08T15:10:36.512Z,4.57
2017-07-08T15:13:18.279Z,4.30
2017-07-08T15:15:51.007Z,4.77
2017-07-08T15:18:20.851Z,4.30
2017-07-08T15:20:50.533Z,4.40
2017-07-08T15:23:20.182Z,4.07
2017-07-08T15:25:49.907Z,4.00
2017-07-08T15:28:19.592Z,4.67
2017-07-08T15:30:49.338Z,4.00
2017-07-08T15:33:18.659Z,4.00
2017-07-08T15:35:48.460Z,3.97
2017-07-08T15:38:23.243Z,4.30
2017-07-08T15:40:58.799Z,3.80
2017-07-08T15:43:28.669Z,4.23
2017-07-08T15:45:58.391Z,4.40
2017-07-08T15:48:28.042Z,4.70
2017-07-08T15:50:57.787Z,4.40
2017-07-08T15:53:27.434Z,4.13
2017-07-08T15:55:57.223Z,4.00
2017-07-08T15:58:26.930Z,4.87
2017-07-08T16:00:57.170Z,4.57
2017-07-08T16:03:29.006Z,4.40
2017-07-08T16:06:00.962Z,4.50
2017-07-08T16:08:33.331Z,4.50
2017-07-08T16:11:05.477Z,4.63
2017-07-08T16:13:35.547Z,4.43
2017-07-08T16:16:07.799Z,3.90
2017-07-08T16:18:39.139Z,4.13
2017-07-08T16:21:10.910Z,4.07
2017-07-08T16:23:43.690Z,3.80
2017-07-08T16:26:13.957Z,4.87
2017-07-08T16:28:43.866Z,10.37
2017-07-08T16:31:13.544Z,7.10
2017-07-08T16:33:43.314Z,6.03
2017-07-08T16:36:13.057Z,4.23
2017-07-08T16:38:42.750Z,4.10
2017-07-08T16:41:20.168Z,3.47
2017-07-08T16:43:52.364Z,4.37
2017-07-08T16:46:22.026Z,3.53
2017-07-08T16:48:51.821Z,3.87
2017-07-08T16:51:21.624Z,3.90
2017-07-08T16:53:51.379Z,3.93
2017-07-08T16:56:21.059Z,3.73
2017-07-08T16:58:50.746Z,3.80
2017-07-08T17:01:20.619Z,3.37
2017-07-08T17:03:51.088Z,3.00
2017-07-08T17:06:20.845Z,4.73
2017-07-08T17:08:50.653Z,3.40
2017-07-08T17:11:20.326Z,3.60
2017-07-08T17:13:50.387Z,3.27
2017-07-08T17:16:20.178Z,3.30
2017-07-08T17:18:50.099Z,2.87
2017-07-08T17:21:19.794Z,3.13
2017-07-08T17:23:50.132Z,2.93
2017-07-08T17:26:19.829Z,2.70
2017-07-08T17:28:50.290Z,2.87
2017-07-08T17:31:20.015Z,2.80
2017-07-08T17:33:49.711Z,2.70
2017-07-08T17:36:19.464Z,3.30
2017-07-08T17:38:49.262Z,3.63
2017-07-08T17:41:18.974Z,3.00
2017-07-08T17:43:55.307Z,3.27
2017-07-08T17:46:27.421Z,2.93
2017-07-08T17:48:57.118Z,2.90
2017-07-08T17:51:26.835Z,3.77
2017-07-08T17:53:57.162Z,3.37
2017-07-08T17:56:26.979Z,3.60
2017-07-08T17:58:56.758Z,3.50
2017-07-08T18:01:26.446Z,3.00
2017-07-08T18:03:56.182Z,3.20
2017-07-08T18:06:25.896Z,3.13
2017-07-08T18:08:55.643Z,3.20
2017-07-08T18:11:25.324Z,3.00
2017-07-08T18:13:55.247Z,3.17
2017-07-08T18:16:24.955Z,3.20
2017-07-08T18:18:54.754Z,2.90
2017-07-08T18:21:24.409Z,3.17
2017-07-08T18:23:54.726Z,3.43
2017-07-08T18:26:24.430Z,3.00
2017-07-08T18:28:54.143Z,2.97
2017-07-08T18:31:23.861Z,3.53
2017-07-08T18:33:53.607Z,3.33
2017-07-08T18:36:24.064Z,3.60
2017-07-08T18:38:53.787Z,3.20
2017-07-08T18:41:24.087Z,3.50
2017-07-08T18:43:53.739Z,3.50
2017-07-08T18:46:31.091Z,3.60
2017-07-08T18:49:01.425Z,3.40
2017-07-08T18:51:31.845Z,3.43
2017-07-08T18:54:01.607Z,3.50
2017-07-08T18:56:31.374Z,3.30
2017-07-08T18:59:01.194Z,3.00
2017-07-08T19:01:30.922Z,3.07
2017-07-08T19:04:01.602Z,3.50
2017-07-08T19:06:32.225Z,2.87
2017-07-08T19:09:01.890Z,2.97
2017-07-08T19:11:31.591Z,3.23
2017-07-08T19:14:01.252Z,3.90
2017-07-08T19:16:31.694Z,3.10
2017-07-08T19:19:01.435Z,2.87
2017-07-08T19:21:31.159Z,3.90
2017-07-08T19:24:00.906Z,3.60
2017-07-08T19:26:30.652Z,3.60
2017-07-08T19:29:00.319Z,3.10
2017-07-08T19:31:30.010Z,3.67
2017-07-08T19:33:59.822Z,3.77
2017-07-08T19:36:29.659Z,3.60
2017-07-08T19:38:59.351Z,4.30
2017-07-08T19:41:29.067Z,4.00
2017-07-08T19:43:58.764Z,4.40
2017-07-08T19:46:28.542Z,4.23
2017-07-08T19:49:02.546Z,4.37
2017-07-08T19:51:37.331Z,4.47
2017-07-08T19:54:07.004Z,4.70
2017-07-08T19:56:36.763Z,5.17
2017-07-08T19:59:07.174Z,5.30
2017-07-08T20:01:36.889Z,5.33
2017-07-08T20:04:06.622Z,5.30
2017-07-08T20:06:36.332Z,5.43
2017-07-08T20:09:06.054Z,6.60
2017-07-08T20:11:35.710Z,6.40
2017-07-08T20:14:05.542Z,6.40
2017-07-08T20:16:35.930Z,7.00
2017-07-08T20:19:07.143Z,7.00
2017-07-08T20:21:36.863Z,6.57
2017-07-08T20:24:06.596Z,7.87
2017-07-08T20:26:36.315Z,12.00
2017-07-08T20:29:06.101Z,16.37
2017-07-08T20:31:35.809Z,19.20
2017-07-08T20:34:05.604Z,28.13
2017-07-08T20:36:35.331Z,34.13
2017-07-08T20:39:06.191Z,26.30
2017-07-08T20:41:35.883Z,24.23
2017-07-08T20:44:05.760Z,11.73
2017-07-08T20:46:35.438Z,10.90
2017-07-08T20:49:05.183Z,10.40
2017-07-08T20:51:42.031Z,10.50
2017-07-08T20:54:14.686Z,10.63
2017-07-08T20:56:44.441Z,9.07
2017-07-08T20:59:14.271Z,9.97
2017-07-08T21:01:43.971Z,8.17
2017-07-08T21:04:13.650Z,7.30
2017-07-08T21:06:43.305Z,6.87
2017-07-08T21:09:13.779Z,6.93
2017-07-08T21:11:44.187Z,5.90
2017-07-08T21:14:14.539Z,6.50
2017-07-08T21:16:44.192Z,5.80
2017-07-08T21:19:13.939Z,5.87
2017-07-08T21:21:43.666Z,6.37
2017-07-08T21:24:13.355Z,5.87
2017-07-08T21:26:43.135Z,6.30
2017-07-08T21:29:12.934Z,6.10
2017-07-08T21:31:42.698Z,6.37
2017-07-08T21:34:12.483Z,7.23
2017-07-08T21:36:42.244Z,6.00
2017-07-08T21:39:12.526Z,6.30
2017-07-08T21:41:42.238Z,6.13
2017-07-08T21:44:11.943Z,6.60
2017-07-08T21:46:41.635Z,5.93
2017-07-08T21:49:11.386Z,6.50
2017-07-08T21:51:41.180Z,5.93
2017-07-08T21:54:10.938Z,6.13
2017-07-08T21:56:40.702Z,6.00
2017-07-08T21:59:10.458Z,6.53
2017-07-08T22:01:40.912Z,5.70
2017-07-08T22:04:10.778Z,6.00
2017-07-08T22:06:40.477Z,6.67
2017-07-08T22:09:10.148Z,6.20
2017-07-08T22:11:39.940Z,6.43
2017-07-08T22:14:09.639Z,5.77
2017-07-08T22:16:39.400Z,5.90
2017-07-08T22:19:09.063Z,5.93
2017-07-08T22:21:38.734Z,5.93
2017-07-08T22:24:09.195Z,6.13
2017-07-08T22:26:39.743Z,6.50
2017-07-08T22:29:09.547Z,5.73
2017-07-08T22:31:39.327Z,6.70
2017-07-08T22:34:09.186Z,6.03
2017-07-08T22:36:39.002Z,5.77
2017-07-08T22:39:09.016Z,5.60
2017-07-08T22:41:39.472Z,6.43
2017-07-08T22:44:09.534Z,6.60
2017-07-08T22:46:39.396Z,6.10
2017-07-08T22:49:09.729Z,6.20
2017-07-08T22:51:39.633Z,6.03
2017-07-08T22:54:09.458Z,6.90
2017-07-08T22:56:45.107Z,6.23
2017-07-08T22:59:14.830Z,6.60
2017-07-08T23:01:44.744Z,5.83
2017-07-08T23:04:14.855Z,6.23
2017-07-08T23:06:44.669Z,6.60
2017-07-08T23:09:14.490Z,5.97
2017-07-08T23:11:44.308Z,5.90
2017-07-08T23:14:14.742Z,5.90
2017-07-08T23:16:44.555Z,6.87
2017-07-08T23:19:16.130Z,7.10
2017-07-08T23:21:46.032Z,6.27
2017-07-08T23:24:15.844Z,6.17
2017-07-08T23:26:45.862Z,6.30
2017-07-08T23:29:15.673Z,6.47
2017-07-08T23:31:45.490Z,6.60
2017-07-08T23:34:15.188Z,7.07
2017-07-08T23:36:45.021Z,7.03
2017-07-08T23:39:14.837Z,6.50
2017-07-08T23:41:44.762Z,6.87
2017-07-08T23:44:14.578Z,6.40
2017-07-08T23:46:44.385Z,6.23
2017-07-08T23:49:14.208Z,6.43
2017-07-08T23:51:43.904Z,6.20
2017-07-08T23:54:13.636Z,6.60
2017-07-08T23:56:44.260Z,6.37
2017-07-08T23:59:24.158Z,6.00
